createdAt,value
2022-11-08T00:02:03.373Z,100695.25
2022-11-08T00:04:30.089Z,100687.91
2022-11-08T00:07:15.064Z,100691.69
2022-11-08T00:09:59.646Z,100699.66
2022-11-08T00:12:44.427Z,100692.25
2022-11-08T00:15:10.965Z,100692.16
2022-11-08T00:17:37.472Z,100698.03
2022-11-08T00:20:05.422Z,100700.78
2022-11-08T00:22:31.969Z,100702.84
2022-11-08T00:24:58.852Z,100704.78
2022-11-08T00:27:26.577Z,100703.03
2022-11-08T00:29:53.187Z,100708.34
2022-11-08T00:32:21.916Z,100710.72
2022-11-08T00:34:48.713Z,100715.78
2022-11-08T00:37:16.825Z,100707.53
2022-11-08T00:39:43.367Z,100704.53
2022-11-08T00:42:10.538Z,100702.94
2022-11-08T00:44:36.958Z,100703.13
2022-11-08T00:47:03.969Z,100696.38
2022-11-08T00:49:30.670Z,100700.91
2022-11-08T00:51:57.104Z,100689.06
2022-11-08T00:54:23.939Z,100688.53
2022-11-08T00:56:50.582Z,100690.56
2022-11-08T00:59:19.175Z,100696.50
2022-11-08T01:01:46.975Z,100692.00
2022-11-08T01:04:15.551Z,100697.13
2022-11-08T01:06:42.006Z,100692.78
2022-11-08T01:09:08.601Z,100694.91
2022-11-08T01:11:35.641Z,100694.66
2022-11-08T01:14:02.273Z,100697.22
2022-11-08T01:16:32.559Z,100699.09
2022-11-08T01:18:59.793Z,100701.38
2022-11-08T01:21:27.467Z,100707.50
2022-11-08T01:23:54.461Z,100700.59
2022-11-08T01:26:23.696Z,100700.31
2022-11-08T01:28:50.162Z,100693.59
2022-11-08T01:31:19.822Z,100697.38
2022-11-08T01:33:51.213Z,100694.38
2022-11-08T01:36:20.960Z,100695.72
2022-11-08T01:38:47.918Z,100693.41
2022-11-08T01:41:16.146Z,100691.91
2022-11-08T01:43:50.906Z,100697.59
2022-11-08T01:46:20.056Z,100688.56
2022-11-08T01:48:57.700Z,100693.41
2022-11-08T01:51:33.406Z,100691.47
2022-11-08T01:54:05.000Z,100686.25
2022-11-08T01:56:31.786Z,100690.94
2022-11-08T01:59:02.405Z,100691.47
2022-11-08T02:01:28.941Z,100689.88
2022-11-08T02:03:55.675Z,100678.91
2022-11-08T02:06:22.143Z,100681.03
2022-11-08T02:08:48.733Z,100682.44
2022-11-08T02:11:17.984Z,100681.38
2022-11-08T02:13:44.482Z,100683.34
2022-11-08T02:16:13.957Z,100676.25
2022-11-08T02:18:42.520Z,100688.91
2022-11-08T02:21:30.096Z,100682.28
2022-11-08T02:24:00.000Z,100690.22
2022-11-08T02:26:32.392Z,100677.94
2022-11-08T02:28:59.152Z,100683.25
2022-11-08T02:31:25.555Z,100675.81
2022-11-08T02:33:52.063Z,100687.06
2022-11-08T02:36:23.167Z,100676.78
2022-11-08T02:38:54.349Z,100674.50
2022-11-08T02:41:21.085Z,100671.38
2022-11-08T02:43:47.496Z,100676.09
2022-11-08T02:46:14.153Z,100679.34
2022-11-08T02:48:40.639Z,100677.47
2022-11-08T02:51:07.034Z,100683.06
2022-11-08T02:53:33.464Z,100684.66
2022-11-08T02:55:59.880Z,100680.06
2022-11-08T02:58:27.862Z,100684.47
2022-11-08T03:00:54.513Z,100674.94
2022-11-08T03:03:20.950Z,100675.38
2022-11-08T03:05:47.545Z,100677.78
2022-11-08T03:08:15.515Z,100682.81
2022-11-08T03:10:42.124Z,100674.94
2022-11-08T03:13:08.830Z,100673.00
2022-11-08T03:15:35.269Z,100676.16
2022-11-08T03:18:02.493Z,100676.63
2022-11-08T03:20:32.706Z,100671.94
2022-11-08T03:23:06.418Z,100671.31
2022-11-08T03:25:33.213Z,100673.78
2022-11-08T03:28:06.574Z,100675.03
2022-11-08T03:30:34.158Z,100670.16
2022-11-08T03:33:00.792Z,100671.41
2022-11-08T03:35:27.542Z,100671.31
2022-11-08T03:37:56.766Z,100668.66
2022-11-08T03:40:24.031Z,100667.75
2022-11-08T03:42:50.660Z,100658.38
2022-11-08T03:45:17.453Z,100667.22
2022-11-08T03:47:45.550Z,100668.56
2022-11-08T03:50:14.359Z,100657.50
2022-11-08T03:52:59.607Z,100664.66
2022-11-08T03:55:28.232Z,100666.69
2022-11-08T03:57:54.948Z,100666.69
2022-11-08T04:00:24.868Z,100674.06
2022-11-08T04:02:52.132Z,100665.09
2022-11-08T04:05:19.151Z,100668.94
2022-11-08T04:07:45.612Z,100665.28
2022-11-08T04:10:12.804Z,100680.25
2022-11-08T04:13:01.379Z,100676.09
2022-11-08T04:15:29.804Z,100680.06
2022-11-08T04:18:15.909Z,100676.97
2022-11-08T04:21:06.608Z,100683.88
2022-11-08T04:23:35.776Z,100678.75
2022-11-08T04:26:06.166Z,100678.75
2022-11-08T04:28:35.243Z,100683.88
2022-11-08T04:31:05.304Z,100685.81
2022-11-08T04:33:32.273Z,100695.63
2022-11-08T04:36:04.468Z,100683.50
2022-11-08T04:38:31.831Z,100693.22
2022-11-08T04:41:12.315Z,100688.97
2022-11-08T04:43:38.984Z,100675.59
2022-11-08T04:46:11.716Z,100678.34
2022-11-08T04:48:38.456Z,100670.66
2022-11-08T04:51:12.510Z,100668.19
2022-11-08T04:53:39.382Z,100671.09
2022-11-08T04:56:08.462Z,100674.53
2022-11-08T04:58:37.718Z,100677.13
2022-11-08T05:01:06.306Z,100675.13
2022-11-08T05:03:33.329Z,100674.94
2022-11-08T05:06:11.410Z,100676.19
2022-11-08T05:08:38.332Z,100679.28
2022-11-08T05:11:10.736Z,100677.13
2022-11-08T05:13:37.441Z,100678.25
2022-11-08T05:16:06.815Z,100676.81
2022-11-08T05:18:34.131Z,100676.09
2022-11-08T05:21:20.366Z,100670.28
2022-11-08T05:23:48.925Z,100664.91
2022-11-08T05:26:16.689Z,100668.00
2022-11-08T05:28:43.398Z,100671.19
2022-11-08T05:31:10.069Z,100663.13
2022-11-08T05:33:36.926Z,100657.19
2022-11-08T05:36:06.217Z,100657.41
2022-11-08T05:38:33.616Z,100659.50
2022-11-08T05:41:17.043Z,100660.94
2022-11-08T05:43:46.282Z,100653.91
2022-11-08T05:46:12.809Z,100658.59
2022-11-08T05:48:39.573Z,100656.91
2022-11-08T05:51:06.144Z,100663.00
2022-11-08T05:53:32.634Z,100660.19
2022-11-08T05:56:02.819Z,100662.94
2022-11-08T05:58:30.937Z,100661.56
2022-11-08T06:01:23.508Z,100660.00
2022-11-08T06:03:50.180Z,100668.34
2022-11-08T06:06:19.879Z,100666.88
2022-11-08T06:08:50.265Z,100667.22
2022-11-08T06:11:21.610Z,100671.13
2022-11-08T06:13:48.773Z,100675.69
2022-11-08T06:16:17.288Z,100668.38
2022-11-08T06:18:43.910Z,100674.94
2022-11-08T06:21:12.672Z,100669.34
2022-11-08T06:23:39.429Z,100670.94
2022-11-08T06:26:05.885Z,100679.25
2022-11-08T06:28:32.422Z,100673.88
2022-11-08T06:31:00.166Z,100677.78
2022-11-08T06:33:26.823Z,100674.47
2022-11-08T06:35:53.570Z,100681.44
2022-11-08T06:38:20.123Z,100683.47
2022-11-08T06:40:46.648Z,100679.84
2022-11-08T06:43:19.085Z,100676.09
2022-11-08T06:45:46.379Z,100680.31
2022-11-08T06:48:12.782Z,100680.75
2022-11-08T06:50:39.289Z,100676.41
2022-11-08T06:53:08.495Z,100673.22
2022-11-08T06:55:35.883Z,100678.47
2022-11-08T06:58:03.331Z,100674.50
2022-11-08T07:00:30.429Z,100672.78
2022-11-08T07:02:59.528Z,100668.09
2022-11-08T07:05:27.188Z,100677.44
2022-11-08T07:07:53.932Z,100681.66
2022-11-08T07:10:22.053Z,100673.13
2022-11-08T07:12:50.841Z,100682.69
2022-11-08T07:15:17.299Z,100682.13
2022-11-08T07:17:43.727Z,100685.88
2022-11-08T07:20:10.705Z,100685.28
2022-11-08T07:22:37.134Z,100687.78
2022-11-08T07:25:03.786Z,100684.50
2022-11-08T07:27:30.219Z,100688.16
2022-11-08T07:29:56.613Z,100694.63
2022-11-08T07:32:23.065Z,100687.69
2022-11-08T07:34:49.495Z,100693.47
2022-11-08T07:37:15.888Z,100697.09
2022-11-08T07:39:42.313Z,100691.53
2022-11-08T07:42:08.742Z,100682.19
2022-11-08T07:44:35.202Z,100684.91
2022-11-08T07:47:01.639Z,100691.75
2022-11-08T07:49:28.065Z,100688.75
2022-11-08T07:51:54.480Z,100681.53
2022-11-08T07:54:20.883Z,100676.94
2022-11-08T07:56:47.272Z,100678.09
2022-11-08T07:59:13.667Z,100681.19
2022-11-08T08:01:40.170Z,100680.84
2022-11-08T08:04:06.681Z,100678.31
2022-11-08T08:06:33.088Z,100676.00
2022-11-08T08:08:59.465Z,100673.72
2022-11-08T08:11:30.864Z,100673.81
2022-11-08T08:13:59.933Z,100666.94
2022-11-08T08:16:26.351Z,100658.84
2022-11-08T08:18:56.369Z,100656.53
2022-11-08T08:21:23.649Z,100653.97
2022-11-08T08:23:50.107Z,100655.69
2022-11-08T08:26:16.511Z,100654.63
2022-11-08T08:28:42.971Z,100651.28
2022-11-08T08:31:09.436Z,100649.16
2022-11-08T08:33:37.318Z,100646.53
2022-11-08T08:36:04.227Z,100641.41
2022-11-08T08:38:32.580Z,100647.84
2022-11-08T08:40:59.502Z,100646.72
2022-11-08T08:43:27.670Z,100653.88
2022-11-08T08:45:54.677Z,100648.03
2022-11-08T08:48:21.161Z,100654.84
2022-11-08T08:50:48.170Z,100655.28
2022-11-08T08:53:14.767Z,100647.22
2022-11-08T08:55:42.410Z,100631.22
2022-11-08T08:58:10.841Z,100643.97
2022-11-08T09:03:24.118Z,100649.09
2022-11-08T09:05:50.667Z,100656.69
2022-11-08T09:08:17.136Z,100656.69
2022-11-08T09:10:43.568Z,100651.31
2022-11-08T09:13:10.410Z,100651.41
2022-11-08T09:15:39.190Z,100656.97
2022-11-08T09:18:05.864Z,100653.06
2022-11-08T09:20:32.424Z,100650.75
2022-11-08T09:23:03.095Z,100652.78
2022-11-08T09:25:29.752Z,100658.28
2022-11-08T09:27:56.266Z,100648.88
2022-11-08T09:30:23.002Z,100655.63
2022-11-08T09:33:04.978Z,100656.75
2022-11-08T09:35:31.363Z,100656.66
2022-11-08T09:37:58.610Z,100656.22
2022-11-08T09:40:38.086Z,100651.63
2022-11-08T09:43:13.583Z,100649.66
2022-11-08T09:45:46.849Z,100653.38
2022-11-08T09:48:36.816Z,100640.84
2022-11-08T09:51:20.761Z,100648.44
2022-11-08T09:53:59.548Z,100639.84
2022-11-08T09:56:35.548Z,100645.78
2022-11-08T09:59:46.353Z,100646.72
2022-11-08T10:02:18.571Z,100642.63
2022-11-08T10:04:52.081Z,100642.25
2022-11-08T10:07:31.937Z,100638.06
2022-11-08T10:10:24.483Z,100643.63
2022-11-08T10:13:12.302Z,100638.66
2022-11-08T10:16:03.642Z,100639.88
2022-11-08T10:18:36.165Z,100640.31
2022-11-08T10:21:14.729Z,100636.03
2022-11-08T10:24:02.068Z,100644.44
2022-11-08T10:26:39.582Z,100636.91
2022-11-08T10:29:16.212Z,100637.63
2022-11-08T10:31:43.947Z,100642.03
2022-11-08T10:34:16.479Z,100643.66
2022-11-08T10:36:49.150Z,100640.97
2022-11-08T10:39:23.377Z,100632.38
2022-11-08T10:41:58.241Z,100633.53
2022-11-08T10:44:26.607Z,100630.94
2022-11-08T10:46:55.998Z,100634.16
2022-11-08T10:49:31.358Z,100627.50
2022-11-08T10:52:12.861Z,100618.56
2022-11-08T10:54:39.227Z,100620.94
2022-11-08T10:57:05.640Z,100613.84
2022-11-08T10:59:32.810Z,100610.72
2022-11-08T11:02:00.887Z,100609.56
2022-11-08T11:04:32.834Z,100598.69
2022-11-08T11:07:04.296Z,100595.34
2022-11-08T11:09:30.727Z,100597.66
2022-11-08T11:12:08.229Z,100593.81
2022-11-08T11:14:34.792Z,100587.53
2022-11-08T11:17:14.652Z,100583.31
2022-11-08T11:20:03.921Z,100579.94
2022-11-08T11:22:33.703Z,100589.41
2022-11-08T11:25:18.976Z,100582.38
2022-11-08T11:27:53.880Z,100582.78
2022-11-08T11:30:28.738Z,100575.47
2022-11-08T11:33:21.491Z,100570.41
2022-11-08T11:35:51.956Z,100572.81
2022-11-08T11:38:28.036Z,100563.34
2022-11-08T11:40:59.973Z,100571.22
2022-11-08T11:43:30.841Z,100568.47
2022-11-08T11:46:19.258Z,100554.34
2022-11-08T11:48:50.279Z,100553.91
2022-11-08T11:51:16.743Z,100554.34
2022-11-08T11:53:48.486Z,100555.22
2022-11-08T11:56:27.309Z,100546.09
2022-11-08T11:59:31.463Z,100550.91
2022-11-08T12:02:07.048Z,100545.84
2022-11-08T12:05:06.966Z,100544.84
2022-11-08T12:07:41.975Z,100540.91
2022-11-08T12:10:26.352Z,100536.22
2022-11-08T12:13:18.348Z,100534.66
2022-11-08T12:15:47.876Z,100532.09
2022-11-08T12:18:51.775Z,100526.59
2022-11-08T12:21:26.096Z,100525.78
2022-11-08T12:24:12.068Z,100521.44
2022-11-08T12:26:38.472Z,100517.97
2022-11-08T12:29:19.001Z,100505.41
2022-11-08T12:31:58.715Z,100505.41
2022-11-08T12:34:46.376Z,100509.78
2022-11-08T12:37:49.882Z,100503.56
2022-11-08T12:40:43.012Z,100504.69
2022-11-08T12:43:21.724Z,100506.59
2022-11-08T12:46:04.835Z,100492.44
2022-11-08T12:49:00.487Z,100478.28
2022-11-08T12:52:04.397Z,100480.63
2022-11-08T12:54:40.443Z,100479.88
2022-11-08T12:57:14.278Z,100484.28
2022-11-08T12:59:56.416Z,100478.94
2022-11-08T13:02:33.870Z,100480.41
2022-11-08T13:05:03.176Z,100471.03
2022-11-08T13:07:39.389Z,100466.31
2022-11-08T13:10:27.347Z,100462.41
2022-11-08T13:13:24.497Z,100463.56
2022-11-08T13:16:21.458Z,100471.09
2022-11-08T13:18:53.398Z,100460.13
2022-11-08T13:21:40.973Z,100471.94
2022-11-08T13:24:30.837Z,100464.88
2022-11-08T13:27:31.791Z,100479.75
2022-11-08T13:30:24.853Z,100483.69
2022-11-08T13:33:12.596Z,100488.06
2022-11-08T13:35:45.145Z,100486.09
2022-11-08T13:38:40.267Z,100482.97
2022-11-08T13:41:19.318Z,100480.66
2022-11-08T13:43:47.729Z,100485.34
2022-11-08T13:46:20.195Z,100476.66
2022-11-08T13:48:58.883Z,100479.13
2022-11-08T13:51:29.110Z,100482.25
2022-11-08T13:53:57.973Z,100487.72
2022-11-08T13:56:44.721Z,100490.50
2022-11-08T13:59:43.629Z,100483.81
2022-11-08T14:02:30.105Z,100483.06
2022-11-08T14:05:18.385Z,100480.28
2022-11-08T14:07:53.807Z,100480.72
2022-11-08T14:10:29.483Z,100474.00
2022-11-08T14:12:55.909Z,100472.00
2022-11-08T14:15:27.668Z,100470.44
2022-11-08T14:18:26.273Z,100475.94
2022-11-08T14:20:54.736Z,100468.81
2022-11-08T14:23:36.568Z,100463.69
2022-11-08T14:26:10.741Z,100450.69
2022-11-08T14:28:43.363Z,100447.88
2022-11-08T14:31:33.403Z,100442.72
2022-11-08T14:34:01.557Z,100445.84
2022-11-08T14:36:31.057Z,100441.09
2022-11-08T14:39:03.262Z,100444.19
2022-11-08T14:41:31.767Z,100436.69
2022-11-08T14:44:00.540Z,100435.47
2022-11-08T14:46:39.888Z,100444.09
2022-11-08T14:49:18.488Z,100440.53
2022-11-08T14:51:46.031Z,100442.84
2022-11-08T14:54:20.774Z,100456.59
2022-11-08T14:56:48.173Z,100450.69
2022-11-08T14:59:14.844Z,100444.75
2022-11-08T15:01:45.897Z,100444.31
2022-11-08T15:04:16.418Z,100440.75
2022-11-08T15:06:45.307Z,100450.91
2022-11-08T15:09:26.936Z,100449.69
2022-11-08T15:11:56.647Z,100446.50
2022-11-08T15:14:25.988Z,100444.09
2022-11-08T15:16:58.641Z,100444.50
2022-11-08T15:19:32.121Z,100448.34
2022-11-08T15:22:00.333Z,100447.94
2022-11-08T15:24:36.255Z,100449.78
2022-11-08T15:27:05.620Z,100434.81
2022-11-08T15:29:59.679Z,100440.34
2022-11-08T15:32:26.991Z,100431.97
2022-11-08T15:34:57.279Z,100426.03
2022-11-08T15:37:37.352Z,100431.78
2022-11-08T15:40:18.764Z,100429.03
2022-11-08T15:42:47.342Z,100426.19
2022-11-08T15:45:13.712Z,100428.94
2022-11-08T15:47:43.215Z,100419.84
2022-11-08T15:50:30.377Z,100413.81
2022-11-08T15:52:59.242Z,100408.66
2022-11-08T15:55:30.343Z,100411.44
2022-11-08T15:57:58.844Z,100394.19
2022-11-08T16:00:28.412Z,100396.38
2022-11-08T16:02:56.000Z,100403.47
2022-11-08T16:05:33.917Z,100398.19
2022-11-08T16:08:00.430Z,100390.38
2022-11-08T16:10:34.772Z,100393.13
2022-11-08T16:13:02.848Z,100389.88
2022-11-08T16:15:34.231Z,100391.13
2022-11-08T16:18:01.914Z,100390.63
2022-11-08T16:20:30.326Z,100393.00
2022-11-08T16:23:02.401Z,100395.75
2022-11-08T16:25:31.232Z,100389.41
2022-11-08T16:28:08.319Z,100394.47
2022-11-08T16:30:35.410Z,100380.00
2022-11-08T16:33:06.036Z,100387.38
2022-11-08T16:35:32.482Z,100379.50
2022-11-08T16:37:58.902Z,100381.47
2022-11-08T16:40:25.782Z,100378.72
2022-11-08T16:42:53.180Z,100381.81
2022-11-08T16:45:37.277Z,100381.34
2022-11-08T16:48:14.841Z,100378.59
2022-11-08T16:50:42.062Z,100383.25
2022-11-08T16:53:16.990Z,100373.41
2022-11-08T16:55:43.468Z,100377.81
2022-11-08T16:58:09.888Z,100375.44
2022-11-08T17:00:38.255Z,100389.16
2022-11-08T17:03:05.306Z,100395.06
2022-11-08T17:05:32.740Z,100394.16
2022-11-08T17:07:59.195Z,100398.19
2022-11-08T17:10:28.626Z,100401.91
2022-11-08T17:12:55.244Z,100404.31
2022-11-08T17:15:24.948Z,100405.09
2022-11-08T17:17:53.974Z,100400.28
2022-11-08T17:20:21.461Z,100402.72
2022-11-08T17:22:48.788Z,100401.19
2022-11-08T17:25:18.628Z,100404.72
2022-11-08T17:27:45.699Z,100396.41
2022-11-08T17:30:14.722Z,100395.16
2022-11-08T17:32:41.211Z,100395.16
2022-11-08T17:35:09.682Z,100387.22
2022-11-08T17:37:36.495Z,100403.59
2022-11-08T17:40:04.770Z,100390.09
2022-11-08T17:42:35.692Z,100398.41
2022-11-08T17:45:04.041Z,100404.56
2022-11-08T17:47:30.562Z,100395.25
2022-11-08T17:49:57.017Z,100392.59
2022-11-08T17:52:23.685Z,100405.22
2022-11-08T17:54:52.894Z,100410.63
2022-11-08T17:57:19.753Z,100398.53
2022-11-08T17:59:48.143Z,100400.69
2022-11-08T18:02:15.377Z,100400.13
2022-11-08T18:04:42.196Z,100397.47
2022-11-08T18:07:08.912Z,100394.72
2022-11-08T18:09:35.906Z,100398.53
2022-11-08T18:12:02.385Z,100394.94
2022-11-08T18:14:29.138Z,100396.03
2022-11-08T18:16:56.615Z,100390.94
2022-11-08T18:19:23.749Z,100384.53
2022-11-08T18:21:50.204Z,100392.41
2022-11-08T18:24:17.116Z,100391.97
2022-11-08T18:26:43.608Z,100407.59
2022-11-08T18:29:10.334Z,100411.25
2022-11-08T18:31:37.551Z,100414.06
2022-11-08T18:34:04.192Z,100408.59
2022-11-08T18:36:31.463Z,100409.69
2022-11-08T18:39:02.593Z,100401.19
2022-11-08T18:41:32.173Z,100402.81
2022-11-08T18:44:00.687Z,100420.38
2022-11-08T18:46:32.642Z,100418.44
2022-11-08T18:48:59.694Z,100421.81
2022-11-08T18:51:26.422Z,100408.56
2022-11-08T18:53:53.510Z,100403.81
2022-11-08T18:56:20.552Z,100408.41
2022-11-08T18:58:47.685Z,100406.53
2022-11-08T19:01:14.898Z,100409.66
2022-11-08T19:03:42.171Z,100401.44
2022-11-08T19:06:09.251Z,100391.81
2022-11-08T19:08:36.944Z,100382.00
2022-11-08T19:11:09.108Z,100381.22
2022-11-08T19:13:37.950Z,100376.38
2022-11-08T19:16:12.913Z,100371.41
2022-11-08T19:18:40.415Z,100365.91
2022-11-08T19:21:10.225Z,100377.81
2022-11-08T19:23:38.342Z,100366.84
2022-11-08T19:26:16.935Z,100376.25
2022-11-08T19:28:45.538Z,100375.50
2022-11-08T19:31:20.459Z,100372.03
2022-11-08T19:33:48.459Z,100363.25
2022-11-08T19:36:17.704Z,100367.72
2022-11-08T19:38:44.687Z,100365.84
2022-11-08T19:41:18.338Z,100367.09
2022-11-08T19:43:46.287Z,100371.69
2022-11-08T19:46:17.818Z,100379.53
2022-11-08T19:48:46.248Z,100377.75
2022-11-08T19:51:16.076Z,100378.13
2022-11-08T19:53:43.366Z,100376.50
2022-11-08T19:56:13.793Z,100387.88
2022-11-08T19:58:40.294Z,100375.31
2022-11-08T20:01:08.083Z,100371.78
2022-11-08T20:03:34.698Z,100367.25
2022-11-08T20:06:01.113Z,100375.53
2022-11-08T20:08:28.771Z,100372.78
2022-11-08T20:10:55.289Z,100378.69
2022-11-08T20:13:21.744Z,100366.88
2022-11-08T20:15:48.414Z,100371.34
2022-11-08T20:18:15.344Z,100371.34
2022-11-08T20:20:43.632Z,100373.00
2022-11-08T20:23:16.337Z,100369.09
2022-11-08T20:25:42.865Z,100359.94
2022-11-08T20:28:09.485Z,100376.53
2022-11-08T20:30:35.958Z,100387.91
2022-11-08T20:33:02.410Z,100387.91
2022-11-08T20:35:28.929Z,100393.84
2022-11-08T20:37:58.314Z,100388.44
2022-11-08T20:40:24.754Z,100398.22
2022-11-08T20:42:51.145Z,100391.25
2022-11-08T20:45:17.547Z,100391.66
2022-11-08T20:47:43.955Z,100390.50
2022-11-08T20:50:10.985Z,100389.34
2022-11-08T20:52:37.470Z,100386.59
2022-11-08T20:55:04.058Z,100388.97
2022-11-08T20:57:30.507Z,100385.81
2022-11-08T20:59:57.243Z,100387.41
2022-11-08T21:02:23.763Z,100387.88
2022-11-08T21:04:51.428Z,100393.38
2022-11-08T21:10:27.608Z,100387.47
2022-11-08T21:12:50.984Z,100396.09
2022-11-08T21:15:18.995Z,100399.28
2022-11-08T21:17:48.255Z,100398.16
2022-11-08T21:20:14.835Z,100394.66
2022-11-08T21:22:41.248Z,100390.75
2022-11-08T21:25:08.079Z,100389.25
2022-11-08T21:27:37.531Z,100386.06
2022-11-08T21:30:04.331Z,100397.13
2022-11-08T21:32:30.744Z,100391.28
2022-11-08T21:34:57.149Z,100385.09
2022-11-08T21:37:23.700Z,100392.16
2022-11-08T21:39:50.226Z,100385.94
2022-11-08T21:42:16.659Z,100390.69
2022-11-08T21:44:43.109Z,100403.28
2022-11-08T21:47:09.807Z,100401.69
2022-11-08T21:49:36.330Z,100394.63
2022-11-08T21:52:03.622Z,100397.34
2022-11-08T21:54:30.210Z,100401.31
2022-11-08T21:56:56.674Z,100399.19
2022-11-08T21:59:23.115Z,100396.75
2022-11-08T22:01:49.606Z,100398.31
2022-11-08T22:04:16.101Z,100401.94
2022-11-08T22:06:47.298Z,100411.09
2022-11-08T22:09:14.258Z,100406.69
2022-11-08T22:11:41.835Z,100399.97
2022-11-08T22:14:08.431Z,100405.66
2022-11-08T22:16:34.912Z,100401.66
2022-11-08T22:19:08.964Z,100397.28
2022-11-08T22:21:39.604Z,100392.44
2022-11-08T22:24:20.096Z,100401.03
2022-11-08T22:26:47.936Z,100404.53
2022-11-08T22:29:16.105Z,100408.06
2022-11-08T22:31:43.384Z,100404.44
2022-11-08T22:34:10.918Z,100400.91
2022-11-08T22:36:44.428Z,100394.13
2022-11-08T22:39:13.676Z,100384.19
2022-11-08T22:41:40.266Z,100390.66
2022-11-08T22:44:11.743Z,100385.13
2022-11-08T22:46:39.237Z,100399.31
2022-11-08T22:49:05.855Z,100393.00
2022-11-08T22:51:32.418Z,100393.84
2022-11-08T22:53:58.950Z,100388.72
2022-11-08T22:56:25.387Z,100386.56
2022-11-08T22:58:51.771Z,100385.63
2022-11-08T23:01:18.361Z,100381.00
2022-11-08T23:03:46.343Z,100390.41
2022-11-08T23:06:13.689Z,100393.78
2022-11-08T23:08:40.255Z,100391.84
2022-11-08T23:11:25.648Z,100397.34
2022-11-08T23:14:10.527Z,100384.44
2022-11-08T23:16:43.194Z,100391.25
2022-11-08T23:19:29.669Z,100394.09
2022-11-08T23:22:15.333Z,100389.88
2022-11-08T23:24:42.992Z,100398.91
2022-11-08T23:27:29.430Z,100402.16
2022-11-08T23:30:14.287Z,100395.78
2022-11-08T23:32:46.523Z,100390.22
2022-11-08T23:35:13.858Z,100394.97
2022-11-08T23:37:40.565Z,100393.84
2022-11-08T23:40:27.631Z,100399.69
2022-11-08T23:43:31.989Z,100392.25
2022-11-08T23:46:11.253Z,100408.13
2022-11-08T23:48:39.603Z,100400.34
2022-11-08T23:51:06.948Z,100402.00
2022-11-08T23:53:36.703Z,100401.19
2022-11-08T23:56:03.892Z,100391.75
2022-11-08T23:58:30.310Z,100396.44
